Time;durP1;ratioP1;P1;durP2;ratioP2;P2;SDS_P1;SDS_P2;PMS_P1;PMS_P2;Temp;Humidity;BMP_temperature;BMP_pressure;BME280_temperature;BME280_humidity;BME280_pressure;Samples;Min_cycle;Max_cycle;Signal;HPM_P1;HPM_P2
2023/03/22 00:00:51;;;;;;;33.33;13.70;;;6.70;99.90;;;;;;5017420;28;20025;-70
2023/03/22 00:03:17;;;;;;;30.98;16.85;;;6.60;99.90;;;;;;5018024;28;20021;-70
2023/03/22 00:05:44;;;;;;;15.32;11.32;;;6.60;99.90;;;;;;5018906;28;20073;-70
2023/03/22 00:08:12;;;;;;;215.57;89.32;;;6.60;99.90;;;;;;5017093;28;20026;-70
2023/03/22 00:10:39;;;;;;;27.63;14.45;;;6.50;99.90;;;;;;5018821;28;20046;-70
2023/03/22 00:13:06;;;;;;;33.97;16.92;;;6.50;99.90;;;;;;5017145;28;20072;-70
2023/03/22 00:15:32;;;;;;;113.63;47.75;;;6.40;99.90;;;;;;5018617;28;20022;-70
2023/03/22 00:17:58;;;;;;;319.15;123.10;;;6.40;99.90;;;;;;5017686;28;20034;-70
2023/03/22 00:20:25;;;;;;;157.27;65.90;;;6.40;99.90;;;;;;5016822;28;20401;-70
2023/03/22 00:22:51;;;;;;;38.22;20.40;;;6.40;99.90;;;;;;5016903;28;20057;-70
2023/03/22 00:25:17;;;;;;;40.60;19.25;;;6.30;99.90;;;;;;5018156;28;20391;-70
2023/03/22 00:27:43;;;;;;;15.38;9.77;;;6.20;99.90;;;;;;5025767;28;20482;-70
2023/03/22 00:30:10;;;;;;;55.78;24.27;;;6.20;99.90;;;;;;5018266;28;20018;-70
2023/03/22 00:32:37;;;;;;;64.65;28.77;;;6.20;99.90;;;;;;5017734;28;20025;-70
2023/03/22 00:35:04;;;;;;;30.35;15.25;;;6.30;99.90;;;;;;5018236;28;20018;-70
2023/03/22 00:37:33;;;;;;;21.98;12.65;;;6.20;99.90;;;;;;5016650;28;20021;-70
2023/03/22 00:40:02;;;;;;;17.38;11.27;;;6.20;99.90;;;;;;5018130;28;20014;-70
2023/03/22 00:42:27;;;;;;;15.48;11.43;;;6.10;99.90;;;;;;5017783;28;20026;-70
2023/03/22 00:44:53;;;;;;;30.98;16.77;;;6.10;99.90;;;;;;5018126;28;20022;-70
2023/03/22 00:47:19;;;;;;;58.30;27.77;;;6.10;99.90;;;;;;5024597;28;20026;-70
2023/03/22 00:49:44;;;;;;;13.43;9.63;;;6.10;99.90;;;;;;5017984;28;20033;-70
2023/03/22 00:52:10;;;;;;;27.73;16.75;;;6.10;99.90;;;;;;5017632;28;20033;-70
2023/03/22 00:54:36;;;;;;;22.23;11.55;;;6.00;99.90;;;;;;5017946;28;20030;-70
2023/03/22 00:57:01;;;;;;;54.38;25.88;;;6.00;99.90;;;;;;5017694;28;20022;-70
2023/03/22 00:59:27;;;;;;;23.15;13.40;;;6.00;99.90;;;;;;5017615;28;20026;-70
2023/03/22 01:01:54;;;;;;;36.47;17.60;;;5.90;99.90;;;;;;5017571;28;20116;-70
2023/03/22 01:04:24;;;;;;;12.38;8.55;;;5.90;99.90;;;;;;5017535;28;20105;-70
2023/03/22 01:07:00;;;;;;;46.00;22.05;;;5.90;99.90;;;;;;5017631;28;20021;-70
2023/03/22 01:09:30;;;;;;;15.32;9.93;;;5.90;99.90;;;;;;5017622;28;20091;-70
2023/03/22 01:12:00;;;;;;;82.40;35.95;;;5.90;99.90;;;;;;5017673;28;20030;-70
2023/03/22 01:14:26;;;;;;;58.80;26.73;;;5.90;99.90;;;;;;5017538;28;20379;-70
2023/03/22 01:16:56;;;;;;;41.75;22.58;;;5.90;99.90;;;;;;5017630;28;20036;-70
2023/03/22 01:19:23;;;;;;;9.25;8.23;;;5.80;99.90;;;;;;5015609;28;20048;-70
2023/03/22 01:21:49;;;;;;;13.88;9.80;;;5.80;99.90;;;;;;5017259;28;20556;-70
2023/03/22 01:24:15;;;;;;;13.95;7.93;;;5.80;99.90;;;;;;5017304;28;20026;-69
2023/03/22 01:26:41;;;;;;;9.00;8.13;;;5.70;99.90;;;;;;5021525;28;20551;-70
2023/03/22 01:29:07;;;;;;;8.93;7.70;;;5.70;99.90;;;;;;5020616;28;20037;-69
2023/03/22 01:31:33;;;;;;;9.02;8.07;;;5.70;99.90;;;;;;5017233;28;20022;-70
2023/03/22 01:33:58;;;;;;;10.57;7.93;;;5.60;99.90;;;;;;5017316;28;20029;-69
2023/03/22 01:36:24;;;;;;;9.88;8.77;;;5.60;99.90;;;;;;5017314;28;20030;-69
2023/03/22 01:38:50;;;;;;;9.93;8.93;;;5.60;99.90;;;;;;5016053;28;20056;-70
2023/03/22 01:41:18;;;;;;;10.05;7.82;;;5.60;99.90;;;;;;5016841;28;20091;-70
2023/03/22 01:43:43;;;;;;;9.27;8.30;;;5.60;99.90;;;;;;5015861;28;20113;-70
2023/03/22 01:46:09;;;;;;;10.93;8.38;;;5.50;99.90;;;;;;5020538;28;20111;-70
2023/03/22 01:48:44;;;;;;;10.45;7.78;;;5.50;99.90;;;;;;5020055;28;20030;-70
2023/03/22 01:51:17;;;;;;;11.20;7.80;;;5.40;99.90;;;;;;5007298;28;20033;-70
2023/03/22 01:53:50;;;;;;;11.23;9.57;;;5.40;99.90;;;;;;5016991;28;20033;-70
2023/03/22 01:56:20;;;;;;;11.10;8.32;;;5.40;99.90;;;;;;5017000;28;20398;-70
2023/03/22 01:58:47;;;;;;;12.77;9.10;;;5.40;99.90;;;;;;5017024;28;20101;-70
2023/03/22 02:01:13;;;;;;;12.25;9.65;;;5.40;99.90;;;;;;5017036;28;20101;-70
2023/03/22 02:03:57;;;;;;;12.32;9.95;;;5.40;99.90;;;;;;5012777;28;20052;-70
2023/03/22 02:06:23;;;;;;;15.13;10.50;;;5.40;99.90;;;;;;5013378;28;20052;-70
2023/03/22 02:08:51;;;;;;;13.38;9.77;;;5.30;99.90;;;;;;5016145;28;20054;-70
2023/03/22 02:11:40;;;;;;;11.43;9.57;;;5.30;99.90;;;;;;5016767;28;20097;-70
2023/03/22 02:14:18;;;;;;;12.10;9.65;;;5.30;99.90;;;;;;5010790;28;20030;-70
2023/03/22 02:17:09;;;;;;;12.32;10.07;;;5.30;99.90;;;;;;5015625;28;20397;-70
2023/03/22 02:19:53;;;;;;;;;;;5.30;99.90;;;;;;5019899;28;20049;-70
2023/03/22 02:22:51;;;;;;;12.05;8.82;;;5.20;99.90;;;;;;5044125;28;19920;-70
2023/03/22 02:25:40;;;;;;;11.48;9.50;;;5.20;99.90;;;;;;5007232;28;20029;-70
2023/03/22 02:28:47;;;;;;;11.63;10.05;;;5.20;99.90;;;;;;5024734;28;20414;-70
2023/03/22 02:31:36;;;;;;;12.13;10.13;;;5.20;99.90;;;;;;5016080;28;20034;-70
2023/03/22 02:34:27;;;;;;;10.38;9.30;;;5.20;99.90;;;;;;5015171;28;20034;-70
2023/03/22 02:36:59;;;;;;;11.32;9.43;;;5.10;99.90;;;;;;5016604;28;20489;-70
2023/03/22 02:39:27;;;;;;;12.65;8.63;;;5.10;99.90;;;;;;5015216;28;20084;-70
2023/03/22 02:41:58;;;;;;;10.57;9.27;;;5.10;99.90;;;;;;5016500;28;20034;-70
2023/03/22 02:44:42;;;;;;;11.75;10.18;;;5.00;99.90;;;;;;5016186;28;20021;-70
2023/03/22 02:47:21;;;;;;;9.70;8.55;;;5.00;99.90;;;;;;5023207;28;20029;-70
2023/03/22 02:50:07;;;;;;;12.25;9.25;;;5.00;99.90;;;;;;5018658;28;20025;-70
2023/03/22 02:53:04;;;;;;;11.90;9.02;;;5.00;99.90;;;;;;5019809;28;20013;-70
2023/03/22 02:56:22;;;;;;;10.48;8.60;;;5.00;99.90;;;;;;5016363;28;20038;-70
2023/03/22 02:58:52;;;;;;;12.20;8.95;;;5.00;99.90;;;;;;4986518;28;20049;-69
2023/03/22 03:01:34;;;;;;;15.75;10.18;;;5.00;99.90;;;;;;5020102;28;20380;-69
2023/03/22 03:04:03;;;;;;;13.75;10.57;;;4.90;99.90;;;;;;5010563;28;20053;-69
2023/03/22 03:06:34;;;;;;;11.38;10.00;;;4.90;99.90;;;;;;5019657;28;20053;-70
2023/03/22 03:09:03;;;;;;;11.75;9.18;;;4.90;99.90;;;;;;5010356;28;20049;-70
2023/03/22 03:11:30;;;;;;;13.55;9.35;;;4.90;99.90;;;;;;5018167;28;20037;-70
2023/03/22 03:13:56;;;;;;;10.20;8.88;;;4.90;99.90;;;;;;5019992;28;20085;-69
2023/03/22 03:16:29;;;;;;;11.00;9.18;;;4.90;99.90;;;;;;5018021;28;20036;-69
2023/03/22 03:19:23;;;;;;;13.95;9.00;;;4.80;99.90;;;;;;5019222;28;20038;-70
2023/03/22 03:21:54;;;;;;;10.68;9.55;;;4.80;99.90;;;;;;5018220;28;20583;-70
2023/03/22 03:24:30;;;;;;;11.73;10.05;;;4.80;99.90;;;;;;5019493;28;20022;-70
2023/03/22 03:27:05;;;;;;;12.60;9.98;;;4.80;99.90;;;;;;5026124;28;20029;-69
2023/03/22 03:29:43;;;;;;;13.35;10.52;;;4.70;99.90;;;;;;5018209;28;20045;-70
2023/03/22 03:32:30;;;;;;;10.85;9.02;;;4.80;99.90;;;;;;5017609;28;20030;-71
2023/03/22 03:35:20;;;;;;;11.10;8.98;;;4.70;99.90;;;;;;5010491;28;20428;-70
2023/03/22 03:37:53;;;;;;;10.52;8.60;;;4.70;99.90;;;;;;5018062;28;20104;-69
2023/03/22 03:40:26;;;;;;;13.90;9.48;;;4.70;99.90;;;;;;5019045;28;20109;-70
2023/03/22 03:42:55;;;;;;;14.02;9.80;;;4.70;99.90;;;;;;5019034;28;20405;-69
2023/03/22 03:45:22;;;;;;;15.35;10.70;;;4.70;99.90;;;;;;5018816;28;20030;-70
2023/03/22 03:47:55;;;;;;;14.93;11.27;;;4.70;99.90;;;;;;5026459;28;20033;-69
2023/03/22 03:50:22;;;;;;;11.23;10.13;;;4.80;99.90;;;;;;5019013;28;20021;-70
2023/03/22 03:52:48;;;;;;;15.60;11.60;;;4.70;99.90;;;;;;5019063;28;20101;-70
2023/03/22 03:55:14;;;;;;;13.20;10.90;;;4.70;99.90;;;;;;5018598;28;20076;-70
2023/03/22 03:57:40;;;;;;;13.40;11.57;;;4.70;99.90;;;;;;5019045;28;20157;-70
2023/03/22 04:00:06;;;;;;;13.02;10.13;;;4.60;99.90;;;;;;5018126;28;20100;-70
2023/03/22 04:02:32;;;;;;;16.98;10.38;;;4.60;99.90;;;;;;5018248;28;20040;-69
2023/03/22 04:04:57;;;;;;;16.48;11.60;;;4.60;99.90;;;;;;5017905;28;20022;-69
2023/03/22 04:07:23;;;;;;;12.45;10.88;;;4.50;99.90;;;;;;5018575;28;20049;-69
2023/03/22 04:09:49;;;;;;;11.32;9.95;;;4.50;99.90;;;;;;5016861;28;20045;-70
2023/03/22 04:12:15;;;;;;;11.93;10.65;;;4.50;99.90;;;;;;5018682;28;20030;-70
2023/03/22 04:14:40;;;;;;;16.63;10.85;;;4.50;99.90;;;;;;5018339;28;20056;-69
2023/03/22 04:17:06;;;;;;;12.38;10.40;;;4.50;99.90;;;;;;5017002;28;20048;-70
2023/03/22 04:19:32;;;;;;;14.30;10.85;;;4.50;99.90;;;;;;5016539;28;20041;-69
2023/03/22 04:21:59;;;;;;;14.73;10.88;;;4.50;99.90;;;;;;5018581;28;20109;-70
2023/03/22 04:24:25;;;;;;;14.98;10.88;;;4.50;99.90;;;;;;5018349;28;20022;-70
2023/03/22 04:26:51;;;;;;;14.18;10.68;;;4.50;99.90;;;;;;5020322;28;20477;-69
2023/03/22 04:29:17;;;;;;;15.45;12.25;;;4.50;99.90;;;;;;5020525;28;20026;-69
2023/03/22 04:31:43;;;;;;;17.10;10.98;;;4.50;99.90;;;;;;5018003;28;20100;-70
2023/03/22 04:34:08;;;;;;;13.95;11.07;;;4.40;99.90;;;;;;5017691;28;20077;-70
2023/03/22 04:36:38;;;;;;;14.00;11.30;;;4.40;99.90;;;;;;5017036;28;20026;-69
2023/03/22 04:39:13;;;;;;;12.43;10.10;;;4.50;99.90;;;;;;5017810;28;20104;-70
2023/03/22 04:41:38;;;;;;;14.18;11.10;;;4.50;99.90;;;;;;5018190;28;20029;-69
2023/03/22 04:44:05;;;;;;;16.58;9.68;;;4.50;99.90;;;;;;5017508;28;20408;-70
2023/03/22 04:46:34;;;;;;;15.93;10.40;;;4.50;99.90;;;;;;5023032;28;20020;-69
2023/03/22 04:49:00;;;;;;;13.10;9.70;;;4.50;99.90;;;;;;5016329;28;20030;-70
2023/03/22 04:51:26;;;;;;;12.70;9.88;;;4.50;99.90;;;;;;5017848;28;20050;-70
2023/03/22 04:53:53;;;;;;;11.68;10.05;;;4.40;99.90;;;;;;5017487;28;20398;-70
2023/03/22 04:56:19;;;;;;;13.27;9.18;;;4.40;99.90;;;;;;5016089;28;20033;-70
2023/03/22 04:58:45;;;;;;;10.88;9.63;;;4.30;99.90;;;;;;5017700;28;20032;-69
2023/03/22 05:01:14;;;;;;;9.98;8.80;;;4.30;99.90;;;;;;5017617;28;20026;-69
2023/03/22 05:03:41;;;;;;;14.38;11.18;;;4.20;99.90;;;;;;5017212;28;20064;-69
2023/03/22 05:06:08;;;;;;;14.00;11.13;;;4.20;99.90;;;;;;5017436;28;20014;-69
2023/03/22 05:08:34;;;;;;;13.70;10.95;;;4.20;99.90;;;;;;5017435;28;20026;-70
2023/03/22 05:11:09;;;;;;;12.75;10.15;;;4.20;99.90;;;;;;5017500;28;20084;-70
2023/03/22 05:13:36;;;;;;;12.73;9.73;;;4.30;99.90;;;;;;5017534;28;20033;-69
2023/03/22 05:16:02;;;;;;;11.73;10.02;;;4.20;99.90;;;;;;5017431;28;20025;-69
2023/03/22 05:18:29;;;;;;;11.55;9.27;;;4.20;99.90;;;;;;5015624;28;20033;-70
2023/03/22 05:20:56;;;;;;;15.18;9.77;;;4.10;99.90;;;;;;5017321;28;20050;-69
2023/03/22 05:23:22;;;;;;;12.82;10.80;;;4.20;99.90;;;;;;5017324;28;20029;-69
2023/03/22 05:25:48;;;;;;;15.50;10.10;;;4.10;99.90;;;;;;5017442;28;20473;-69
2023/03/22 05:28:18;;;;;;;12.43;10.32;;;4.20;99.90;;;;;;5025565;28;20018;-69
2023/03/22 05:30:44;;;;;;;12.35;9.93;;;4.10;99.90;;;;;;5017156;28;20034;-69
2023/03/22 05:33:11;;;;;;;11.88;10.38;;;4.10;99.90;;;;;;5015693;28;20032;-69
2023/03/22 05:35:38;;;;;;;13.57;10.15;;;4.00;99.90;;;;;;5017434;28;20026;-69
2023/03/22 05:38:05;;;;;;;13.70;10.43;;;4.00;99.90;;;;;;5016855;28;20026;-70
2023/03/22 05:40:31;;;;;;;14.25;10.50;;;4.00;99.90;;;;;;5015661;28;20021;-69
2023/03/22 05:42:56;;;;;;;11.88;9.75;;;4.00;99.90;;;;;;5017212;28;20040;-70
2023/03/22 05:45:23;;;;;;;12.10;9.95;;;4.00;99.90;;;;;;5017321;28;20026;-70
2023/03/22 05:47:49;;;;;;;11.60;10.40;;;4.00;99.90;;;;;;5024601;28;20033;-70
2023/03/22 05:50:18;;;;;;;12.32;10.43;;;4.00;99.90;;;;;;5015620;28;20025;-70
2023/03/22 05:52:44;;;;;;;14.88;11.93;;;4.00;99.90;;;;;;5007770;28;20438;-69
2023/03/22 05:55:12;;;;;;;13.93;11.55;;;4.00;99.90;;;;;;5016753;28;20022;-70
2023/03/22 05:57:39;;;;;;;12.65;11.25;;;4.00;99.90;;;;;;5016025;28;20025;-70
2023/03/22 06:00:12;;;;;;;12.50;11.20;;;4.00;99.90;;;;;;5015470;28;20041;-69
2023/03/22 06:02:38;;;;;;;13.20;11.68;;;4.00;99.90;;;;;;5016985;28;20022;-69
2023/03/22 06:05:04;;;;;;;15.00;11.45;;;4.00;99.90;;;;;;5016761;28;20022;-69
2023/03/22 06:07:30;;;;;;;13.93;10.75;;;4.10;99.90;;;;;;5017283;28;20033;-69
2023/03/22 06:09:56;;;;;;;16.88;10.70;;;4.00;99.90;;;;;;5016792;28;20022;-70
2023/03/22 06:12:23;;;;;;;13.82;11.18;;;4.00;99.90;;;;;;5017148;28;20025;-70
2023/03/22 06:14:49;;;;;;;12.65;11.07;;;4.10;99.90;;;;;;5016785;28;20030;-69
2023/03/22 06:17:15;;;;;;;11.30;9.90;;;4.10;99.90;;;;;;5016944;28;20371;-69
2023/03/22 06:19:41;;;;;;;13.60;10.18;;;4.20;99.90;;;;;;5016514;28;20073;-69
2023/03/22 06:22:07;;;;;;;12.73;10.50;;;4.30;99.90;;;;;;5016857;28;20042;-70
2023/03/22 06:24:33;;;;;;;15.75;10.13;;;4.40;99.90;;;;;;5016800;28;20045;-70
2023/03/22 06:26:58;;;;;;;11.10;9.07;;;4.40;99.90;;;;;;5027756;28;20416;-70
2023/03/22 06:29:24;;;;;;;15.30;9.95;;;4.50;99.90;;;;;;5021492;28;20053;-70
2023/03/22 06:31:50;;;;;;;16.55;9.57;;;4.60;99.90;;;;;;5020420;28;20061;-70
2023/03/22 06:34:15;;;;;;;13.68;11.05;;;4.70;99.90;;;;;;5019952;28;20561;-69
2023/03/22 06:36:41;;;;;;;13.48;10.68;;;4.70;99.90;;;;;;5023626;28;20057;-70
2023/03/22 06:39:07;;;;;;;11.85;9.93;;;4.80;99.90;;;;;;5020175;28;20030;-70
2023/03/22 06:41:33;;;;;;;15.38;11.07;;;4.90;99.90;;;;;;5020422;28;20029;-69
2023/03/22 06:43:59;;;;;;;14.70;10.70;;;5.00;99.90;;;;;;5019826;28;20401;-70
2023/03/22 06:46:25;;;;;;;16.52;11.57;;;5.10;99.90;;;;;;5024740;28;20067;-69
2023/03/22 06:48:50;;;;;;;15.23;11.50;;;5.20;99.90;;;;;;5016784;28;20467;-70
2023/03/22 06:51:16;;;;;;;15.20;11.13;;;5.20;99.90;;;;;;5020493;28;20030;-70
2023/03/22 06:53:42;;;;;;;14.38;11.15;;;5.30;99.90;;;;;;5019679;28;20101;-70
2023/03/22 06:56:08;;;;;;;14.20;11.07;;;5.30;99.90;;;;;;5019847;28;20030;-70
2023/03/22 06:58:33;;;;;;;17.17;11.57;;;5.30;99.90;;;;;;5019210;28;20424;-69
2023/03/22 07:00:59;;;;;;;14.85;11.65;;;5.30;99.90;;;;;;5018421;28;20038;-69
2023/03/22 07:03:25;;;;;;;20.88;12.07;;;5.40;99.90;;;;;;5019343;28;20374;-69
2023/03/22 07:05:50;;;;;;;15.00;10.95;;;5.40;99.90;;;;;;5019884;28;20030;-69
2023/03/22 07:08:16;;;;;;;13.70;11.60;;;5.50;99.90;;;;;;5010572;28;20022;-68
2023/03/22 07:10:42;;;;;;;13.02;11.23;;;5.60;99.90;;;;;;5018317;28;20163;-69
2023/03/22 07:13:08;;;;;;;15.60;11.88;;;5.70;99.90;;;;;;5020577;28;20030;-69
2023/03/22 07:15:35;;;;;;;16.75;12.82;;;5.80;99.90;;;;;;5017434;28;20026;-69
2023/03/22 07:18:01;;;;;;;13.35;10.90;;;6.00;99.90;;;;;;5017776;28;20044;-69
2023/03/22 07:20:27;;;;;;;13.60;10.30;;;6.20;99.90;;;;;;5017118;28;20038;-70
2023/03/22 07:22:53;;;;;;;11.15;10.05;;;6.30;99.90;;;;;;5016764;28;20033;-71
2023/03/22 07:25:19;;;;;;;12.82;10.13;;;6.50;99.90;;;;;;5019735;28;20131;-69
2023/03/22 07:27:45;;;;;;;13.18;9.80;;;6.60;99.90;;;;;;5019657;28;20038;-69
2023/03/22 07:30:11;;;;;;;12.65;9.48;;;6.80;99.90;;;;;;5018283;28;20026;-69
2023/03/22 07:32:39;;;;;;;13.38;10.55;;;6.90;99.90;;;;;;5017906;28;20021;-69
2023/03/22 07:35:05;;;;;;;11.32;10.13;;;7.00;99.90;;;;;;5017751;28;20021;-70
2023/03/22 07:37:31;;;;;;;13.05;9.93;;;7.10;99.90;;;;;;5016923;28;20605;-70
2023/03/22 07:39:57;;;;;;;16.05;10.23;;;7.30;99.90;;;;;;5016832;28;20022;-70
2023/03/22 07:42:23;;;;;;;15.82;10.77;;;7.40;99.90;;;;;;5016780;28;20079;-70
2023/03/22 07:44:48;;;;;;;17.65;9.68;;;7.60;99.90;;;;;;5018209;28;20466;-70
2023/03/22 07:47:14;;;;;;;19.98;9.88;;;7.70;99.90;;;;;;5018222;28;20028;-68
2023/03/22 07:49:40;;;;;;;18.52;9.05;;;7.90;99.90;;;;;;5017429;28;20136;-70
2023/03/22 07:52:06;;;;;;;10.82;8.15;;;8.10;99.90;;;;;;5016707;28;20034;-70
2023/03/22 07:54:32;;;;;;;13.13;8.95;;;8.20;99.90;;;;;;5017565;28;20030;-70
2023/03/22 07:56:58;;;;;;;13.98;8.93;;;8.30;99.90;;;;;;5016524;28;20033;-70
2023/03/22 07:59:24;;;;;;;11.35;8.80;;;8.40;99.90;;;;;;5017649;28;20040;-70
2023/03/22 08:01:50;;;;;;;10.88;9.18;;;8.50;99.90;;;;;;5016238;28;20504;-71
2023/03/22 08:04:15;;;;;;;12.25;7.97;;;8.60;99.90;;;;;;5014029;28;20022;-70
2023/03/22 08:06:42;;;;;;;12.02;8.95;;;8.60;99.90;;;;;;5016495;28;20151;-70
2023/03/22 08:09:08;;;;;;;11.38;8.43;;;8.70;99.90;;;;;;5016160;28;20053;-70
2023/03/22 08:11:35;;;;;;;10.27;7.68;;;8.80;99.90;;;;;;5017152;28;20026;-69
2023/03/22 08:14:00;;;;;;;10.05;8.15;;;9.00;99.90;;;;;;5015872;28;20504;-69
2023/03/22 08:16:26;;;;;;;9.45;7.78;;;9.20;99.90;;;;;;5017266;28;20393;-70
2023/03/22 08:18:52;;;;;;;8.75;6.90;;;9.30;99.90;;;;;;5016232;28;20049;-70
2023/03/22 08:21:18;;;;;;;9.18;7.30;;;9.50;99.90;;;;;;5016779;28;20433;-70
2023/03/22 08:23:43;;;;;;;15.02;6.90;;;9.60;99.90;;;;;;5016861;28;20112;-70
2023/03/22 08:26:10;;;;;;;7.75;6.35;;;9.80;99.90;;;;;;5017462;28;20093;-70
2023/03/22 08:28:35;;;;;;;10.93;6.30;;;10.00;99.90;;;;;;5017177;28;20117;-70
2023/03/22 08:31:08;;;;;;;10.43;7.10;;;10.10;99.90;;;;;;5016842;28;20049;-70
2023/03/22 08:33:34;;;;;;;8.60;6.80;;;10.10;99.90;;;;;;5016720;28;20544;-70
2023/03/22 08:36:12;;;;;;;8.70;6.40;;;10.30;99.90;;;;;;5016618;28;20030;-70
2023/03/22 08:38:37;;;;;;;9.48;7.13;;;10.40;99.90;;;;;;5016011;28;20033;-69
2023/03/22 08:41:03;;;;;;;10.65;6.40;;;10.60;99.90;;;;;;5016743;28;20030;-69
2023/03/22 08:43:29;;;;;;;6.45;5.22;;;10.90;99.90;;;;;;5015956;28;20102;-69
2023/03/22 08:45:55;;;;;;;10.52;5.38;;;11.10;99.90;;;;;;5016798;28;20029;-69
2023/03/22 08:48:21;;;;;;;15.70;5.63;;;11.40;99.90;;;;;;5015308;28;20386;-69
2023/03/22 08:50:47;;;;;;;9.40;5.68;;;11.50;99.90;;;;;;5014462;28;20030;-69
2023/03/22 08:53:12;;;;;;;12.73;6.22;;;11.80;99.90;;;;;;5016789;28;20509;-69
2023/03/22 08:55:43;;;;;;;11.25;5.50;;;11.90;99.90;;;;;;5016695;28;20022;-69
2023/03/22 08:58:12;;;;;;;;;;;11.90;99.90;;;;;;5015707;28;20119;-69
2023/03/22 09:00:38;;;;;;;7.05;5.05;;;12.00;99.90;;;;;;5018978;28;19940;-70
2023/03/22 09:03:04;;;;;;;8.30;5.20;;;12.10;99.90;;;;;;5017322;28;20026;-69
2023/03/22 09:05:30;;;;;;;7.63;4.80;;;12.20;99.90;;;;;;5015230;28;20425;-69
2023/03/22 09:07:55;;;;;;;12.10;5.10;;;12.30;99.90;;;;;;5014302;28;20053;-70
2023/03/22 09:10:21;;;;;;;7.70;5.05;;;12.40;99.90;;;;;;5016801;28;20080;-70
2023/03/22 09:12:47;;;;;;;6.68;4.50;;;12.50;99.90;;;;;;5014014;28;20073;-69
2023/03/22 09:15:13;;;;;;;9.52;4.65;;;12.60;99.90;;;;;;5013375;28;20053;-69
2023/03/22 09:17:39;;;;;;;9.13;4.53;;;12.60;99.90;;;;;;5015003;28;20014;-69
2023/03/22 09:20:06;;;;;;;7.18;4.50;;;12.50;99.90;;;;;;5014915;28;20129;-69
2023/03/22 09:22:31;;;;;;;5.95;4.30;;;12.60;99.90;;;;;;5014720;28;20109;-69
2023/03/22 09:24:57;;;;;;;7.20;4.50;;;12.70;99.90;;;;;;5017545;28;20045;-69
2023/03/22 09:27:23;;;;;;;6.32;4.78;;;12.90;99.90;;;;;;5016766;28;20022;-69
2023/03/22 09:29:50;;;;;;;5.07;4.47;;;13.10;99.90;;;;;;5015873;28;20087;-70
2023/03/22 09:32:16;;;;;;;7.53;4.38;;;13.30;99.90;;;;;;5015646;28;20029;-69
2023/03/22 09:34:42;;;;;;;12.02;4.95;;;13.50;99.90;;;;;;5016132;28;20032;-69
2023/03/22 09:37:07;;;;;;;5.80;4.05;;;13.80;99.90;;;;;;5013920;28;20026;-69
2023/03/22 09:39:37;;;;;;;6.00;3.88;;;14.00;99.90;;;;;;5016133;28;20030;-69
2023/03/22 09:42:06;;;;;;;9.73;5.07;;;14.20;99.90;;;;;;5015499;28;20045;-69
2023/03/22 09:44:41;;;;;;;10.75;4.93;;;14.30;99.90;;;;;;5016020;28;20026;-70
2023/03/22 09:47:15;;;;;;;5.60;4.38;;;14.60;99.90;;;;;;5014891;28;20023;-69
2023/03/22 09:49:46;;;;;;;7.25;3.92;;;14.60;99.90;;;;;;5014723;28;20080;-69
2023/03/22 09:52:14;;;;;;;9.30;4.05;;;14.70;99.90;;;;;;5013908;28;20493;-69
2023/03/22 09:54:42;;;;;;;7.35;3.55;;;14.80;99.90;;;;;;5015848;28;20083;-69
2023/03/22 09:57:35;;;;;;;9.30;3.65;;;14.90;99.90;;;;;;5013904;28;20064;-69
2023/03/22 10:00:13;;;;;;;4.38;3.40;;;14.90;99.90;;;;;;5014903;28;20397;-69
2023/03/22 10:02:39;;;;;;;5.47;3.10;;;15.00;99.90;;;;;;5019666;28;20104;-69
2023/03/22 10:05:35;;;;;;;5.80;2.80;;;15.00;99.90;;;;;;5019839;28;20042;-69
2023/03/22 10:08:04;;;;;;;11.90;3.28;;;15.10;99.90;;;;;;5010701;28;20519;-70
2023/03/22 10:10:30;;;;;;;5.75;3.00;;;15.20;99.90;;;;;;5019765;28;20014;-69
2023/03/22 10:13:12;;;;;;;6.53;3.25;;;15.20;99.90;;;;;;5019824;28;20037;-69
2023/03/22 10:15:49;;;;;;;4.88;3.00;;;15.20;99.90;;;;;;5018067;28;20037;-69
2023/03/22 10:18:36;;;;;;;4.90;3.20;;;15.30;99.90;;;;;;5016602;28;20458;-70
2023/03/22 10:21:05;;;;;;;15.25;3.90;;;15.30;99.90;;;;;;5015895;28;20076;-69
2023/03/22 10:23:51;;;;;;;5.68;3.15;;;15.30;99.90;;;;;;5017963;28;20018;-69
2023/03/22 10:26:41;;;;;;;6.65;3.00;;;15.40;99.90;;;;;;5019060;28;20022;-69
2023/03/22 10:29:42;;;;;;;4.93;3.40;;;15.70;99.90;;;;;;5010761;28;20064;-70
2023/03/22 10:32:15;;;;;;;8.48;2.97;;;15.80;99.90;;;;;;5007636;28;20042;-69
2023/03/22 10:34:45;;;;;;;9.38;2.90;;;15.90;99.90;;;;;;5017891;28;20022;-69
2023/03/22 10:37:16;;;;;;;4.63;2.42;;;16.10;99.90;;;;;;5017376;28;20022;-69
2023/03/22 10:40:05;;;;;;;;;;;16.20;99.90;;;;;;5018443;28;20030;-69
2023/03/22 10:42:33;;;;;;;6.35;2.88;;;16.40;99.90;;;;;;5017129;28;20297;-70
2023/03/22 10:45:06;;;;;;;4.95;2.83;;;16.50;99.90;;;;;;5016705;28;20026;-69
2023/03/22 10:47:47;;;;;;;7.35;2.30;;;16.50;99.90;;;;;;5017352;28;20022;-69
2023/03/22 10:50:19;;;;;;;;;;;16.60;99.90;;;;;;5018163;28;20393;-69
2023/03/22 10:52:53;;;;;;;4.35;3.00;;;16.80;99.90;;;;;;5017579;28;19953;-69
2023/03/22 10:55:19;;;;;;;3.80;2.25;;;16.80;99.90;;;;;;5017769;28;20032;-69
2023/03/22 10:58:01;;;;;;;3.95;2.20;;;16.90;99.90;;;;;;5016882;28;20502;-70
2023/03/22 11:00:27;;;;;;;7.47;2.65;;;17.00;99.90;;;;;;5015768;28;20032;-69
2023/03/22 11:02:58;;;;;;;4.07;2.85;;;17.10;99.90;;;;;;5016694;28;20037;-70
2023/03/22 11:05:27;;;;;;;7.30;2.90;;;17.20;99.90;;;;;;5015265;28;20018;-69
2023/03/22 11:07:53;;;;;;;9.00;3.33;;;17.20;99.90;;;;;;5016681;28;20033;-69
2023/03/22 11:10:33;;;;;;;3.70;2.33;;;17.30;99.90;;;;;;5017014;28;20017;-69
2023/03/22 11:13:08;;;;;;;3.53;2.40;;;17.30;99.90;;;;;;5016160;28;20489;-69
2023/03/22 11:15:37;;;;;;;3.30;2.33;;;17.40;99.90;;;;;;5017574;28;20026;-70
2023/03/22 11:21:23;;;;;;;5.97;2.63;;;17.50;99.90;;;;;;5064508;28;20387;-68
2023/03/22 11:23:57;;;;;;;5.63;2.67;;;17.60;99.90;;;;;;5052078;28;20068;-71
2023/03/22 11:26:30;;;;;;;5.57;2.20;;;17.70;99.90;;;;;;5050350;28;20021;-70
2023/03/22 11:29:11;;;;;;;4.78;2.72;;;17.90;99.90;;;;;;5052909;28;20020;-71
2023/03/22 11:31:58;;;;;;;2.78;1.85;;;17.90;99.90;;;;;;5052899;28;20491;-71
2023/03/22 11:34:29;;;;;;;5.13;2.30;;;18.20;99.90;;;;;;5052828;28;20036;-71
2023/03/22 11:36:59;;;;;;;4.78;2.00;;;18.20;99.90;;;;;;5030502;28;20042;-71
2023/03/22 11:39:29;;;;;;;3.30;2.28;;;18.40;99.90;;;;;;5049486;28;20087;-71
2023/03/22 11:42:02;;;;;;;4.95;2.20;;;18.50;99.90;;;;;;5048652;28;20079;-72
2023/03/22 11:44:33;;;;;;;5.13;2.85;;;18.60;99.90;;;;;;5049811;28;20022;-71
2023/03/22 11:47:01;;;;;;;3.83;2.35;;;18.70;99.90;;;;;;5050264;28;20029;-70
2023/03/22 11:49:50;;;;;;;4.90;2.08;;;18.80;99.90;;;;;;5052504;28;20025;-69
2023/03/22 11:52:24;;;;;;;6.78;2.20;;;19.00;99.90;;;;;;5051702;28;20401;-70
2023/03/22 11:54:51;;;;;;;5.15;1.88;;;19.00;99.90;;;;;;5052414;28;20029;-69
2023/03/22 11:57:23;;;;;;;3.15;1.83;;;19.00;99.90;;;;;;5051918;28;20048;-69
2023/03/22 11:59:54;;;;;;;7.03;2.13;;;19.10;99.90;;;;;;5052339;28;20152;-69
2023/03/22 12:02:31;;;;;;;2.58;1.90;;;19.20;99.90;;;;;;5050799;28;20025;-70
2023/03/22 12:05:06;;;;;;;4.00;2.22;;;19.30;99.90;;;;;;5051216;28;20044;-70
2023/03/22 12:07:35;;;;;;;3.53;2.20;;;19.30;99.90;;;;;;5048494;28;20032;-70
2023/03/22 12:10:13;;;;;;;3.67;2.03;;;19.20;99.90;;;;;;5052318;28;20017;-69
2023/03/22 12:12:45;;;;;;;3.17;2.20;;;19.20;99.90;;;;;;5052010;28;20021;-69
2023/03/22 12:15:22;;;;;;;6.18;2.17;;;19.20;99.90;;;;;;5052413;28;20056;-69
2023/03/22 12:18:06;;;;;;;4.07;2.40;;;19.20;99.90;;;;;;5050211;28;20147;-69
2023/03/22 12:20:53;;;;;;;5.65;2.33;;;19.30;99.90;;;;;;5047703;28;20040;-69
2023/03/22 12:23:22;;;;;;;2.60;1.70;;;19.30;99.90;;;;;;5051272;28;20013;-69
2023/03/22 12:26:10;;;;;;;4.97;1.85;;;19.40;99.90;;;;;;5050550;28;20064;-69
2023/03/22 12:28:46;;;;;;;5.22;2.22;;;19.40;99.90;;;;;;5044205;28;20116;-70
2023/03/22 12:31:30;;;;;;;3.42;2.42;;;19.50;99.90;;;;;;5044126;28;20030;-69
2023/03/22 12:33:59;;;;;;;5.80;2.25;;;19.50;99.90;;;;;;5037883;28;20028;-70
2023/03/22 12:36:41;;;;;;;2.70;1.77;;;19.70;99.90;;;;;;5052356;28;20024;-69
2023/03/22 12:39:14;;;;;;;3.70;2.30;;;19.80;99.50;;;;;;5036446;28;20018;-69
2023/03/22 12:41:46;;;;;;;3.20;1.90;;;19.90;99.20;;;;;;5038325;28;20061;-69
2023/03/22 12:44:26;;;;;;;3.75;1.70;;;19.90;99.30;;;;;;5038571;28;20014;-69
2023/03/22 12:46:57;;;;;;;3.70;1.88;;;20.00;98.10;;;;;;5036587;28;20051;-69
2023/03/22 12:49:41;;;;;;;4.45;1.92;;;20.20;96.90;;;;;;5037477;28;20061;-69
2023/03/22 12:52:29;;;;;;;4.72;2.05;;;20.20;97.10;;;;;;5036426;28;20061;-69
2023/03/22 12:54:58;;;;;;;3.03;1.60;;;20.50;96.80;;;;;;5037749;28;20026;-69
2023/03/22 12:57:24;;;;;;;3.28;1.90;;;20.70;96.00;;;;;;5037412;28;20161;-69
2023/03/22 12:59:54;;;;;;;3.50;1.85;;;20.80;94.30;;;;;;5037959;28;20021;-70
2023/03/22 13:02:31;;;;;;;3.08;1.63;;;21.00;96.00;;;;;;5036767;28;20033;-70